createdAt,value
2019-03-30T00:01:49.229Z,9.10
2019-03-30T00:04:34.144Z,9.00
2019-03-30T00:07:00.336Z,9.00
2019-03-30T00:09:26.490Z,9.00
2019-03-30T00:11:52.645Z,9.00
2019-03-30T00:14:18.853Z,9.00
2019-03-30T00:16:45.033Z,9.00
2019-03-30T00:19:11.212Z,9.00
2019-03-30T00:21:55.862Z,8.90
2019-03-30T00:24:22.155Z,8.90
2019-03-30T00:26:48.356Z,8.90
2019-03-30T00:29:14.516Z,8.90
2019-03-30T00:31:40.681Z,8.90
2019-03-30T00:34:06.846Z,8.80
2019-03-30T00:36:35.656Z,8.80
2019-03-30T00:39:03.761Z,8.80
2019-03-30T00:41:30.011Z,8.80
2019-03-30T00:43:56.311Z,8.80
2019-03-30T00:46:22.510Z,8.80
2019-03-30T00:48:48.679Z,8.70
2019-03-30T00:51:14.994Z,8.70
2019-03-30T00:53:41.178Z,8.70
2019-03-30T00:56:07.351Z,8.60
2019-03-30T00:58:33.509Z,8.60
2019-03-30T01:01:19.218Z,8.60
2019-03-30T01:03:45.359Z,8.60
2019-03-30T01:06:11.585Z,8.60
2019-03-30T01:08:40.312Z,8.50
2019-03-30T01:11:06.470Z,8.50
2019-03-30T01:13:32.651Z,8.50
2019-03-30T01:15:58.824Z,8.50
2019-03-30T01:18:24.992Z,8.40
2019-03-30T01:20:51.164Z,8.40
2019-03-30T01:23:17.309Z,8.40
2019-03-30T01:25:43.506Z,8.40
2019-03-30T01:28:09.656Z,8.40
2019-03-30T01:30:35.812Z,8.40
2019-03-30T01:33:02.036Z,8.40
2019-03-30T01:35:30.792Z,8.40
2019-03-30T01:37:57.194Z,8.30
2019-03-30T01:40:23.410Z,8.30
2019-03-30T01:42:49.735Z,8.30
2019-03-30T01:45:16.037Z,8.30
2019-03-30T01:47:42.218Z,8.20
2019-03-30T01:50:17.279Z,8.20
2019-03-30T01:52:36.912Z,8.20
2019-03-30T01:55:06.280Z,8.20
2019-03-30T01:57:32.492Z,8.20
2019-03-30T01:59:58.857Z,8.20
2019-03-30T02:05:29.941Z,8.10
2019-03-30T02:07:56.225Z,8.10
2019-03-30T02:10:38.614Z,8.10
2019-03-30T02:13:05.410Z,8.10
2019-03-30T02:15:32.235Z,8.00
2019-03-30T02:18:10.919Z,8.00
2019-03-30T02:20:39.939Z,8.00
2019-03-30T02:23:06.321Z,8.00
2019-03-30T02:25:42.056Z,8.00
2019-03-30T02:28:08.663Z,8.00
2019-03-30T02:30:35.533Z,8.00
2019-03-30T02:33:05.447Z,8.00
2019-03-30T02:35:32.195Z,7.90
2019-03-30T02:38:01.241Z,7.90
2019-03-30T02:40:27.432Z,7.90
2019-03-30T02:42:53.778Z,7.90
2019-03-30T02:45:35.402Z,7.90
2019-03-30T02:48:01.683Z,7.80
2019-03-30T02:50:28.440Z,7.80
2019-03-30T02:52:54.835Z,7.80
2019-03-30T02:55:23.955Z,7.80
2019-03-30T02:57:50.363Z,7.80
2019-03-30T03:00:34.977Z,7.80
2019-03-30T03:03:01.213Z,7.80
2019-03-30T03:05:27.389Z,7.80
2019-03-30T03:07:53.817Z,7.80
2019-03-30T03:10:23.225Z,7.80
2019-03-30T03:12:49.755Z,7.80
2019-03-30T03:15:16.212Z,7.80
2019-03-30T03:17:44.633Z,7.80
2019-03-30T03:20:11.323Z,7.80
2019-03-30T03:22:37.827Z,7.80
2019-03-30T03:25:11.569Z,7.70
2019-03-30T03:27:37.829Z,7.70
2019-03-30T03:30:05.096Z,7.80
2019-03-30T03:32:31.413Z,7.70
2019-03-30T03:34:57.810Z,7.80
2019-03-30T03:37:43.260Z,7.70
2019-03-30T03:39:52.604Z,7.70
2019-03-30T03:42:21.697Z,7.70
2019-03-30T03:44:51.159Z,7.70
2019-03-30T03:47:26.779Z,7.70
2019-03-30T03:49:53.136Z,7.70
2019-03-30T03:52:19.313Z,7.70
2019-03-30T03:54:45.626Z,7.70
2019-03-30T03:57:14.688Z,7.70
2019-03-30T03:59:41.502Z,7.60
2019-03-30T04:02:10.534Z,7.60
2019-03-30T04:04:37.822Z,7.60
2019-03-30T04:07:04.155Z,7.60
2019-03-30T04:09:33.113Z,7.60
2019-03-30T04:11:59.488Z,7.50
2019-03-30T04:14:25.911Z,7.50
2019-03-30T04:16:53.661Z,7.50
2019-03-30T04:19:22.769Z,7.50
2019-03-30T04:21:49.151Z,7.50
2019-03-30T04:24:18.333Z,7.40
2019-03-30T04:26:44.537Z,7.40
2019-03-30T04:29:10.863Z,7.40
2019-03-30T04:31:40.415Z,7.40
2019-03-30T04:34:19.025Z,7.30
2019-03-30T04:36:45.338Z,7.30
2019-03-30T04:39:11.688Z,7.30
2019-03-30T04:41:37.918Z,7.30
2019-03-30T04:44:04.197Z,7.30
2019-03-30T04:46:30.389Z,7.30
2019-03-30T04:48:56.676Z,7.30
2019-03-30T04:51:22.998Z,7.30
2019-03-30T04:53:49.440Z,7.20
2019-03-30T04:56:15.747Z,7.20
2019-03-30T04:58:42.041Z,7.20
2019-03-30T05:01:08.294Z,7.20
2019-03-30T05:03:37.359Z,7.10
2019-03-30T05:06:03.948Z,7.10
2019-03-30T05:08:30.163Z,7.10
2019-03-30T05:10:56.629Z,7.10
2019-03-30T05:13:23.484Z,7.10
2019-03-30T05:15:50.011Z,7.10
2019-03-30T05:18:16.240Z,7.10
2019-03-30T05:20:42.409Z,7.20
2019-03-30T05:23:08.675Z,7.10
2019-03-30T05:25:34.878Z,7.10
2019-03-30T05:28:01.214Z,7.20
2019-03-30T05:30:27.440Z,7.20
2019-03-30T05:33:05.113Z,7.20
2019-03-30T05:35:21.768Z,7.20
2019-03-30T05:37:48.014Z,7.20
2019-03-30T05:40:14.451Z,7.30
2019-03-30T05:42:40.771Z,7.30
2019-03-30T05:45:09.997Z,7.40
2019-03-30T05:47:36.216Z,7.40
2019-03-30T05:50:04.898Z,7.50
2019-03-30T05:52:40.382Z,7.50
2019-03-30T05:55:06.778Z,7.60
2019-03-30T05:57:32.966Z,7.60
2019-03-30T05:59:59.145Z,7.70
2019-03-30T06:02:25.531Z,7.70
2019-03-30T06:04:51.772Z,7.80
2019-03-30T06:07:18.040Z,7.80
2019-03-30T06:09:44.315Z,7.80
2019-03-30T06:12:10.576Z,7.90
2019-03-30T06:14:37.119Z,8.00
2019-03-30T06:17:03.485Z,8.10
2019-03-30T06:19:30.054Z,8.10
2019-03-30T06:21:56.328Z,8.20
2019-03-30T06:24:22.719Z,8.20
2019-03-30T06:26:51.652Z,8.30
2019-03-30T06:29:17.914Z,8.40
2019-03-30T06:31:46.734Z,8.50
2019-03-30T06:34:12.230Z,8.50
2019-03-30T06:36:38.627Z,8.60
2019-03-30T06:39:04.989Z,8.70
2019-03-30T06:41:31.277Z,8.80
2019-03-30T06:43:57.512Z,8.80
2019-03-30T06:46:23.705Z,8.80
2019-03-30T06:48:49.998Z,8.80
2019-03-30T06:51:34.690Z,8.90
2019-03-30T06:54:00.909Z,9.00
2019-03-30T06:56:27.571Z,9.00
2019-03-30T06:58:53.952Z,9.00
2019-03-30T07:01:20.233Z,9.10
2019-03-30T07:03:46.792Z,9.10
2019-03-30T07:06:13.911Z,9.20
2019-03-30T07:08:41.216Z,9.20
2019-03-30T07:11:20.484Z,9.20
2019-03-30T07:13:38.236Z,9.20
2019-03-30T07:16:25.105Z,9.30
2019-03-30T07:18:51.638Z,9.30
2019-03-30T07:21:23.643Z,9.40
2019-03-30T07:23:52.437Z,9.50
2019-03-30T07:26:18.680Z,9.50
2019-03-30T07:28:47.058Z,9.60
2019-03-30T07:31:15.825Z,9.70
2019-03-30T07:33:42.191Z,9.80
2019-03-30T07:36:08.399Z,9.90
2019-03-30T07:38:34.651Z,9.90
2019-03-30T07:41:03.720Z,10.00
2019-03-30T07:43:30.052Z,10.10
2019-03-30T07:45:56.245Z,10.10
2019-03-30T07:48:22.641Z,10.20
2019-03-30T07:50:55.294Z,10.30
2019-03-30T07:53:26.746Z,10.40
2019-03-30T07:55:49.670Z,10.50
2019-03-30T07:58:16.305Z,10.50
2019-03-30T08:00:57.870Z,10.60
2019-03-30T08:03:24.345Z,10.70
2019-03-30T08:05:50.586Z,10.80
2019-03-30T08:08:16.898Z,10.90
2019-03-30T08:11:01.996Z,11.00
2019-03-30T08:13:28.652Z,11.10
2019-03-30T08:15:55.199Z,11.20
2019-03-30T08:18:21.733Z,11.30
2019-03-30T08:20:47.974Z,11.40
2019-03-30T08:23:17.003Z,11.50
2019-03-30T08:25:43.252Z,11.60
2019-03-30T08:28:09.470Z,11.70
2019-03-30T08:30:35.677Z,11.70
2019-03-30T08:33:01.903Z,11.80
2019-03-30T08:35:28.296Z,11.90
2019-03-30T08:37:57.329Z,12.00
2019-03-30T08:40:26.529Z,12.00
2019-03-30T08:42:52.880Z,12.10
2019-03-30T08:45:34.435Z,12.20
2019-03-30T08:48:01.009Z,12.20
2019-03-30T08:50:27.320Z,12.30
2019-03-30T08:52:53.500Z,12.40
2019-03-30T08:55:19.717Z,12.40
2019-03-30T08:57:46.088Z,12.50
2019-03-30T09:00:16.502Z,12.60
2019-03-30T09:03:01.297Z,12.70
2019-03-30T09:05:30.614Z,12.80
2019-03-30T09:08:15.599Z,12.80
2019-03-30T09:10:41.821Z,12.90
2019-03-30T09:13:08.148Z,13.00
2019-03-30T09:15:37.074Z,13.10
2019-03-30T09:18:03.505Z,13.20
2019-03-30T09:20:29.947Z,13.30
2019-03-30T09:22:58.907Z,13.30
2019-03-30T09:25:25.084Z,13.40
2019-03-30T09:27:51.284Z,13.50
2019-03-30T09:30:20.757Z,13.50
2019-03-30T09:32:47.152Z,13.60
2019-03-30T09:35:13.732Z,13.70
2019-03-30T09:37:58.355Z,13.90
2019-03-30T09:40:25.885Z,14.10
2019-03-30T09:42:52.274Z,14.20
2019-03-30T09:45:18.550Z,14.40
2019-03-30T09:47:44.722Z,14.60
2019-03-30T09:50:12.095Z,14.80
2019-03-30T09:52:41.190Z,15.10
2019-03-30T09:55:07.755Z,15.40
2019-03-30T09:57:46.237Z,16.60
2019-03-30T10:00:14.305Z,19.30
2019-03-30T10:02:40.622Z,21.80
2019-03-30T10:05:07.012Z,24.00
2019-03-30T10:07:33.177Z,26.00
2019-03-30T10:09:59.545Z,27.50
2019-03-30T10:12:28.693Z,28.80
2019-03-30T10:14:57.504Z,29.80
2019-03-30T10:17:23.825Z,30.30
2019-03-30T10:22:18.520Z,29.70
2019-03-30T10:24:44.689Z,27.80
2019-03-30T10:27:10.874Z,25.90
2019-03-30T10:29:38.188Z,24.10
2019-03-30T10:32:07.665Z,22.70
2019-03-30T10:34:39.385Z,21.60
2019-03-30T10:37:04.706Z,20.80
2019-03-30T10:39:31.393Z,20.10
2019-03-30T10:42:00.608Z,19.70
2019-03-30T10:44:29.499Z,19.50
2019-03-30T10:46:56.130Z,19.30
2019-03-30T10:49:31.650Z,19.30
2019-03-30T10:51:58.040Z,19.40
2019-03-30T10:54:24.434Z,19.60
2019-03-30T10:56:50.754Z,19.90
2019-03-30T10:59:17.012Z,20.60
2019-03-30T11:01:46.110Z,22.40
2019-03-30T11:04:14.904Z,24.70
2019-03-30T11:06:41.179Z,27.00
2019-03-30T11:09:07.356Z,28.90
2019-03-30T11:11:33.667Z,30.20
2019-03-30T11:14:00.001Z,31.10
2019-03-30T11:16:26.224Z,31.60
2019-03-30T11:18:52.799Z,30.40
2019-03-30T11:21:21.815Z,29.00
2019-03-30T11:23:48.326Z,28.10
2019-03-30T11:26:14.729Z,28.20
2019-03-30T11:28:40.925Z,27.80
2019-03-30T11:31:07.203Z,27.90
2019-03-30T11:33:34.616Z,27.50
2019-03-30T11:36:03.745Z,27.50
2019-03-30T11:38:32.761Z,27.40
2019-03-30T11:40:59.088Z,27.50
2019-03-30T11:43:25.334Z,27.10
2019-03-30T11:46:10.632Z,27.60
2019-03-30T11:48:39.769Z,26.90
2019-03-30T11:51:05.985Z,26.00
2019-03-30T11:53:32.185Z,25.70
2019-03-30T11:56:01.092Z,25.10
2019-03-30T11:58:27.525Z,24.70
2019-03-30T12:00:56.795Z,24.20
2019-03-30T12:03:41.753Z,23.90
2019-03-30T12:06:08.044Z,23.40
2019-03-30T12:08:34.243Z,23.40
2019-03-30T12:11:00.533Z,23.90
2019-03-30T12:13:27.100Z,23.90
2019-03-30T12:15:56.064Z,23.70
2019-03-30T12:18:22.328Z,23.30
2019-03-30T12:20:51.272Z,22.80
2019-03-30T12:23:17.518Z,22.50
2019-03-30T12:26:02.633Z,22.30
2019-03-30T12:28:29.246Z,22.20
2019-03-30T12:30:55.585Z,22.10
2019-03-30T12:33:21.833Z,22.20
2019-03-30T12:35:48.032Z,22.40
2019-03-30T12:38:14.548Z,22.40
2019-03-30T12:40:40.736Z,22.30
2019-03-30T12:43:07.081Z,22.30
2019-03-30T12:45:36.439Z,22.10
2019-03-30T12:48:05.710Z,22.10
2019-03-30T12:50:34.654Z,22.30
2019-03-30T12:53:01.067Z,22.70
2019-03-30T12:55:30.319Z,22.90
2019-03-30T12:57:59.324Z,22.90
2019-03-30T13:00:28.279Z,22.70
2019-03-30T13:02:54.760Z,22.30
2019-03-30T13:05:23.847Z,22.10
2019-03-30T13:07:52.607Z,22.20
2019-03-30T13:10:19.116Z,22.80
2019-03-30T13:12:45.438Z,23.50
2019-03-30T13:15:11.965Z,24.60
2019-03-30T13:17:41.101Z,25.50
2019-03-30T13:20:07.598Z,26.80
2019-03-30T13:22:40.349Z,27.90
2019-03-30T13:25:06.744Z,27.90
2019-03-30T13:27:33.080Z,28.30
2019-03-30T13:29:59.256Z,28.10
2019-03-30T13:32:25.816Z,27.50
2019-03-30T13:35:10.360Z,27.60
2019-03-30T13:37:36.521Z,26.60
2019-03-30T13:40:05.433Z,25.90
2019-03-30T13:42:34.397Z,26.20
2019-03-30T13:45:03.496Z,27.20
2019-03-30T13:47:28.818Z,27.90
2019-03-30T13:49:55.000Z,28.20
2019-03-30T13:52:21.271Z,28.30
2019-03-30T13:54:47.441Z,28.90
2019-03-30T13:57:13.810Z,29.50
2019-03-30T13:59:40.397Z,29.80
2019-03-30T14:02:09.229Z,29.50
2019-03-30T14:04:35.700Z,28.90
2019-03-30T14:07:02.047Z,28.80
2019-03-30T14:09:28.293Z,27.60
2019-03-30T14:11:57.284Z,26.40
2019-03-30T14:14:23.580Z,25.20
2019-03-30T14:16:50.127Z,24.30
2019-03-30T14:19:18.905Z,23.70
2019-03-30T14:21:45.444Z,23.40
2019-03-30T14:24:20.802Z,24.10
2019-03-30T14:26:47.268Z,25.20
2019-03-30T14:29:13.592Z,26.20
2019-03-30T14:31:39.760Z,27.20
2019-03-30T14:34:05.936Z,27.60
2019-03-30T14:36:32.126Z,27.90
2019-03-30T14:39:05.246Z,27.80
2019-03-30T14:41:50.223Z,28.00
2019-03-30T14:44:50.478Z,28.10
2019-03-30T14:47:35.450Z,27.60
2019-03-30T14:50:21.280Z,26.90
2019-03-30T14:53:21.601Z,26.20
2019-03-30T14:56:06.208Z,25.50
2019-03-30T14:58:51.155Z,25.10
2019-03-30T15:01:36.204Z,24.80
2019-03-30T15:04:23.937Z,24.50
2019-03-30T15:07:08.785Z,24.20
2019-03-30T15:09:56.839Z,23.80
2019-03-30T15:12:44.592Z,23.40
2019-03-30T15:15:29.333Z,23.10
2019-03-30T15:18:26.469Z,22.70
2019-03-30T15:21:30.285Z,22.30
2019-03-30T15:24:15.440Z,22.00
2019-03-30T15:27:00.686Z,21.60
2019-03-30T15:29:45.836Z,21.40
2019-03-30T15:32:40.020Z,21.20
2019-03-30T15:35:34.005Z,21.00
2019-03-30T15:38:24.778Z,21.10
2019-03-30T15:41:09.446Z,21.00
2019-03-30T15:43:54.266Z,20.90
2019-03-30T15:46:39.176Z,20.90
2019-03-30T15:49:39.693Z,20.90
2019-03-30T15:52:24.970Z,20.80
2019-03-30T15:55:10.200Z,20.70
2019-03-30T15:57:54.951Z,20.50
2019-03-30T16:00:43.467Z,20.50
2019-03-30T16:03:37.878Z,20.30
2019-03-30T16:06:34.956Z,20.00
2019-03-30T16:09:32.113Z,19.80
2019-03-30T16:12:20.015Z,19.60
2019-03-30T16:15:05.583Z,19.50
2019-03-30T16:17:50.329Z,19.40
2019-03-30T16:20:35.107Z,19.30
2019-03-30T16:23:19.910Z,19.20
2019-03-30T16:26:07.750Z,19.10
2019-03-30T16:28:52.711Z,19.00
2019-03-30T16:31:37.252Z,18.90
2019-03-30T16:34:22.144Z,18.80
2019-03-30T16:37:10.278Z,18.80
2019-03-30T16:39:57.919Z,18.70
2019-03-30T16:42:42.653Z,18.70
2019-03-30T16:45:27.476Z,18.70
2019-03-30T16:48:27.986Z,18.60
2019-03-30T16:51:12.957Z,18.60
2019-03-30T16:54:13.522Z,18.60
2019-03-30T16:56:58.339Z,18.50
2019-03-30T16:59:46.302Z,18.50
2019-03-30T17:02:31.018Z,18.40
2019-03-30T17:05:15.784Z,18.40
2019-03-30T17:08:00.620Z,18.40
2019-03-30T17:10:45.472Z,18.30
2019-03-30T17:13:45.649Z,18.20
2019-03-30T17:16:48.992Z,18.20
2019-03-30T17:19:46.235Z,18.10
2019-03-30T17:22:46.528Z,18.00
2019-03-30T17:25:40.806Z,17.90
2019-03-30T17:28:25.622Z,17.80
2019-03-30T17:31:13.465Z,17.80
2019-03-30T17:34:16.941Z,17.70
2019-03-30T17:37:01.760Z,17.60
2019-03-30T17:39:49.543Z,17.60
2019-03-30T17:42:34.661Z,17.50
2019-03-30T17:45:19.404Z,17.40
2019-03-30T17:48:04.215Z,17.40
2019-03-30T17:50:49.013Z,17.30
2019-03-30T17:53:39.494Z,17.30
2019-03-30T17:56:23.569Z,17.20
2019-03-30T17:59:11.565Z,17.10
2019-03-30T18:01:56.411Z,17.10
2019-03-30T18:05:00.100Z,17.00
2019-03-30T18:07:44.867Z,16.90
2019-03-30T18:10:32.703Z,16.90
2019-03-30T18:13:17.833Z,16.80
2019-03-30T18:16:02.672Z,16.80
2019-03-30T18:19:06.370Z,16.80
2019-03-30T18:21:51.361Z,16.80
2019-03-30T18:24:36.242Z,16.70
2019-03-30T18:27:39.535Z,16.70
2019-03-30T18:30:39.086Z,16.70
2019-03-30T18:33:23.703Z,16.70
2019-03-30T18:36:08.521Z,16.70
2019-03-30T18:39:08.682Z,16.60
2019-03-30T18:42:01.727Z,16.60
2019-03-30T18:45:05.879Z,16.50
2019-03-30T18:47:57.198Z,16.50
2019-03-30T18:50:42.028Z,16.40
2019-03-30T18:53:29.818Z,16.30
2019-03-30T18:56:14.378Z,16.20
2019-03-30T18:59:01.892Z,16.20
2019-03-30T19:01:46.592Z,16.10
2019-03-30T19:04:31.167Z,16.00
2019-03-30T19:07:34.352Z,15.90
2019-03-30T19:10:37.707Z,15.80
2019-03-30T19:13:41.724Z,15.80
2019-03-30T19:16:29.139Z,15.80
2019-03-30T19:19:29.426Z,15.70
2019-03-30T19:22:14.377Z,15.60
2019-03-30T19:25:04.297Z,15.50
2019-03-30T19:27:48.936Z,15.40
2019-03-30T19:30:43.079Z,15.40
2019-03-30T19:33:46.427Z,15.30
2019-03-30T19:36:31.574Z,15.20
2019-03-30T19:39:16.254Z,15.10
2019-03-30T19:42:01.072Z,15.00
2019-03-30T19:44:45.846Z,14.90
2019-03-30T19:47:49.398Z,14.80
2019-03-30T19:50:37.315Z,14.70
2019-03-30T19:53:22.217Z,14.60
2019-03-30T19:56:07.237Z,14.50
2019-03-30T19:59:10.774Z,14.40
2019-03-30T20:01:54.601Z,14.40
2019-03-30T20:04:39.568Z,14.30
2019-03-30T20:07:43.126Z,14.20
2019-03-30T20:10:28.014Z,14.10
2019-03-30T20:13:12.835Z,14.00
2019-03-30T20:16:01.214Z,14.00
2019-03-30T20:18:49.136Z,13.90
2019-03-30T20:21:33.900Z,13.80
2019-03-30T20:24:18.828Z,13.80
2019-03-30T20:27:16.124Z,13.70
2019-03-30T20:30:16.862Z,13.70
2019-03-30T20:33:01.771Z,13.60
2019-03-30T20:35:46.675Z,13.60
2019-03-30T20:38:31.444Z,13.60
2019-03-30T20:41:16.275Z,13.60
2019-03-30T20:44:19.796Z,13.50
2019-03-30T20:47:04.750Z,13.50
2019-03-30T20:50:09.154Z,13.50
2019-03-30T20:53:12.396Z,13.40
2019-03-30T20:56:09.553Z,13.30
2019-03-30T20:59:13.076Z,13.30
2019-03-30T21:01:57.785Z,13.20
2019-03-30T21:04:45.651Z,13.20
2019-03-30T21:07:49.124Z,13.10
2019-03-30T21:10:33.988Z,13.00
2019-03-30T21:13:21.798Z,13.00
2019-03-30T21:16:06.718Z,12.90
2019-03-30T21:19:00.886Z,12.90
2019-03-30T21:21:45.711Z,12.80
2019-03-30T21:24:30.525Z,12.70
2019-03-30T21:27:15.600Z,12.60
2019-03-30T21:30:00.527Z,12.60
2019-03-30T21:33:03.926Z,12.50
2019-03-30T21:35:48.637Z,12.40
2019-03-30T21:38:33.400Z,12.30
2019-03-30T21:41:18.366Z,12.20
2019-03-30T21:44:03.486Z,12.20
2019-03-30T21:46:48.666Z,12.10
2019-03-30T21:49:33.486Z,12.00
2019-03-30T21:52:18.541Z,11.90
2019-03-30T21:55:06.865Z,11.80
2019-03-30T21:57:51.642Z,11.80
2019-03-30T22:00:37.979Z,11.80
2019-03-30T22:03:25.889Z,11.70
2019-03-30T22:06:10.722Z,11.70
2019-03-30T22:09:14.678Z,11.60
2019-03-30T22:11:59.525Z,11.60
2019-03-30T22:14:44.188Z,11.60
2019-03-30T22:17:28.984Z,11.50
2019-03-30T22:20:13.832Z,11.50
2019-03-30T22:23:10.993Z,11.50
2019-03-30T22:25:58.815Z,11.50
2019-03-30T22:28:43.947Z,11.40
2019-03-30T22:31:28.844Z,11.50
2019-03-30T22:34:13.714Z,11.50
2019-03-30T22:36:58.485Z,11.60
2019-03-30T22:39:43.331Z,11.60
2019-03-30T22:42:28.154Z,11.60
2019-03-30T22:45:16.014Z,11.60
2019-03-30T22:48:01.146Z,11.60
2019-03-30T22:50:48.798Z,11.60
2019-03-30T22:53:33.728Z,11.60
2019-03-30T22:56:21.881Z,11.50
2019-03-30T22:59:09.764Z,11.50
2019-03-30T23:01:54.583Z,11.40
2019-03-30T23:04:39.798Z,11.40
2019-03-30T23:07:24.666Z,11.30
2019-03-30T23:10:25.057Z,11.30
2019-03-30T23:13:09.706Z,11.20
2019-03-30T23:15:54.472Z,11.20
2019-03-30T23:18:39.314Z,11.20
2019-03-30T23:21:24.114Z,11.10
2019-03-30T23:24:09.008Z,11.10
2019-03-30T23:27:06.259Z,11.00
2019-03-30T23:29:54.116Z,11.00
2019-03-30T23:32:38.971Z,10.90
2019-03-30T23:35:23.960Z,10.80
2019-03-30T23:38:08.852Z,10.80
2019-03-30T23:40:53.719Z,10.70
2019-03-30T23:43:41.549Z,10.70
2019-03-30T23:46:26.381Z,10.60
2019-03-30T23:49:11.369Z,10.60
2019-03-30T23:51:56.208Z,10.50
2019-03-30T23:54:56.438Z,10.40
2019-03-30T23:57:53.617Z,10.30
